map of GBE home
GBE - Airport
Location
City:  Gaborone, South-East, Botswana
Name:Sir Seretse Khama International Airport
ICAO:FBSK
IATA:GBE

Details
Type:Airport (Aerodrome, Airfield)
Use:Public/Civil, International (customs port of entry)
Latitude:2433'19"S (-24.555224)
Longitude:2555'06"E (25.918208)
Datum:WGS 1984
Elevation:3299 ft (1006 m)
Variation:15.73W (WMM2015 magnetic declination)
-0.06 annual change
Runways:1
Longest:9843 × 148 ft (3000 × 45 m), paved

Time
Time Zone:UTC+2
Local Time:

Weather
METAR:FBSK 201000Z 05008KT 350V120 CAVOK 31/09 Q1019 NOSIG
TAF:FBSK 200900Z 2012/2118 02004KT CAVOK
BECMG 2110/2112 FEW035CB= TAF FQBR 201000Z 2012/2118 13015KT 9999 BKN020
BECMG 2018/2020 19015G25KT
BECMG 2106/2108 23012KT
BECMG 2112/2114 15015G25KT TX28/2013Z TN22/2103Z

Related Locations
Nearby:
Farthest:HNM: 12146 mi / 19547 km
Hana, Maui, HI, US

Find:

   beyond  
but within

Other Information
Maps:
NOTAMs:
Links:
Sources:

  
  • flag of Botswana
  

Sectional Chart

Flight Planning
at skyvector.com

Satellite Image

Google Maps Satellite view

 

Copyright © 2004-2018 Karl L. Swartz. All rights reserved.
The Great Circle Mapper name and logo are trademarks of the Great Circle Mapper.
All other trademarks mentioned herein belong to their respective owners.
Please see credits for attibutions and further copyright information.

  Follow gcmap on Facebook Follow gcmap on Twitter Follow gcmap on Google+ GCmap on LinkedIn

hCard Microformat

Geo Microformat